sensor_id;sensor_type;location;lat;lon;timestamp;P1;durP1;ratioP1;P2;durP2;ratioP2
77099;SDS011;66602;48.922;2.414;2023-05-21T15:19:51;5.13;;;4.82;;
77099;SDS011;66602;48.922;2.414;2023-05-21T15:22:17;5.40;;;5.10;;
77099;SDS011;66602;48.922;2.414;2023-05-21T15:24:42;5.20;;;4.78;;
77099;SDS011;66602;48.922;2.414;2023-05-21T15:27:08;5.40;;;4.65;;
77099;SDS011;66602;48.922;2.414;2023-05-21T15:29:34;5.20;;;4.80;;
77099;SDS011;66602;48.922;2.414;2023-05-21T15:32:00;4.97;;;4.68;;
77099;SDS011;66602;48.922;2.414;2023-05-21T15:34:29;4.60;;;4.30;;
77099;SDS011;66602;48.922;2.414;2023-05-21T15:36:57;5.43;;;4.93;;
77099;SDS011;66602;48.922;2.414;2023-05-21T15:39:23;5.50;;;5.13;;
77099;SDS011;66602;48.922;2.414;2023-05-21T15:41:48;5.88;;;5.38;;
77099;SDS011;66602;48.922;2.414;2023-05-21T15:44:14;5.45;;;5.15;;
77099;SDS011;66602;48.922;2.414;2023-05-21T15:46:39;5.93;;;5.43;;
77099;SDS011;66602;48.922;2.414;2023-05-21T15:49:05;8.55;;;4.88;;
77099;SDS011;66602;48.922;2.414;2023-05-21T15:51:31;10.00;;;5.47;;
77099;SDS011;66602;48.922;2.414;2023-05-21T15:53:57;6.63;;;6.05;;
77099;SDS011;66602;48.922;2.414;2023-05-21T15:56:23;16.48;;;14.93;;
77099;SDS011;66602;48.922;2.414;2023-05-21T15:58:48;6.05;;;5.65;;
77099;SDS011;66602;48.922;2.414;2023-05-21T16:01:14;6.15;;;5.70;;
77099;SDS011;66602;48.922;2.414;2023-05-21T16:03:39;6.10;;;5.55;;
77099;SDS011;66602;48.922;2.414;2023-05-21T16:06:05;5.93;;;5.43;;
77099;SDS011;66602;48.922;2.414;2023-05-21T16:08:32;7.65;;;5.38;;
77099;SDS011;66602;48.922;2.414;2023-05-21T16:10:58;6.43;;;6.00;;
77099;SDS011;66602;48.922;2.414;2023-05-21T16:13:24;7.20;;;6.60;;
77099;SDS011;66602;48.922;2.414;2023-05-21T16:15:50;5.47;;;5.20;;
77099;SDS011;66602;48.922;2.414;2023-05-21T16:18:16;5.93;;;5.53;;
77099;SDS011;66602;48.922;2.414;2023-05-21T16:20:41;6.70;;;6.03;;
77099;SDS011;66602;48.922;2.414;2023-05-21T16:23:07;8.07;;;6.22;;
77099;SDS011;66602;48.922;2.414;2023-05-21T16:25:32;6.30;;;5.90;;
77099;SDS011;66602;48.922;2.414;2023-05-21T16:27:59;6.45;;;6.00;;
77099;SDS011;66602;48.922;2.414;2023-05-21T16:30:25;11.40;;;7.50;;
77099;SDS011;66602;48.922;2.414;2023-05-21T16:32:51;9.48;;;6.72;;
77099;SDS011;66602;48.922;2.414;2023-05-21T16:35:17;7.45;;;6.75;;
77099;SDS011;66602;48.922;2.414;2023-05-21T16:37:42;10.60;;;7.72;;
77099;SDS011;66602;48.922;2.414;2023-05-21T16:40:08;7.10;;;6.60;;
77099;SDS011;66602;48.922;2.414;2023-05-21T16:42:34;8.15;;;7.55;;
77099;SDS011;66602;48.922;2.414;2023-05-21T16:44:59;10.88;;;8.85;;
77099;SDS011;66602;48.922;2.414;2023-05-21T16:47:25;9.30;;;8.48;;
77099;SDS011;66602;48.922;2.414;2023-05-21T16:49:50;11.15;;;6.65;;
77099;SDS011;66602;48.922;2.414;2023-05-21T16:52:16;8.57;;;7.80;;
77099;SDS011;66602;48.922;2.414;2023-05-21T16:54:41;8.48;;;7.72;;
77099;SDS011;66602;48.922;2.414;2023-05-21T16:57:12;8.73;;;7.88;;
77099;SDS011;66602;48.922;2.414;2023-05-21T16:59:38;8.25;;;7.43;;
77099;SDS011;66602;48.922;2.414;2023-05-21T17:02:03;7.80;;;7.20;;
77099;SDS011;66602;48.922;2.414;2023-05-21T17:04:29;8.43;;;7.72;;
77099;SDS011;66602;48.922;2.414;2023-05-21T17:06:55;7.60;;;7.10;;
77099;SDS011;66602;48.922;2.414;2023-05-21T17:09:21;8.45;;;7.72;;
77099;SDS011;66602;48.922;2.414;2023-05-21T17:11:46;7.68;;;7.18;;
77099;SDS011;66602;48.922;2.414;2023-05-21T17:14:12;10.88;;;8.05;;
77099;SDS011;66602;48.922;2.414;2023-05-21T17:16:37;8.65;;;8.05;;
77099;SDS011;66602;48.922;2.414;2023-05-21T17:19:06;10.18;;;7.82;;
77099;SDS011;66602;48.922;2.414;2023-05-21T17:21:32;9.20;;;8.02;;
77099;SDS011;66602;48.922;2.414;2023-05-21T17:23:58;10.68;;;8.15;;
77099;SDS011;66602;48.922;2.414;2023-05-21T17:26:23;16.67;;;8.35;;
77099;SDS011;66602;48.922;2.414;2023-05-21T17:28:49;8.02;;;7.43;;
77099;SDS011;66602;48.922;2.414;2023-05-21T17:31:14;9.68;;;8.00;;
77099;SDS011;66602;48.922;2.414;2023-05-21T17:33:40;9.10;;;8.40;;
77099;SDS011;66602;48.922;2.414;2023-05-21T17:36:05;11.32;;;8.27;;
77099;SDS011;66602;48.922;2.414;2023-05-21T17:38:31;10.45;;;9.02;;
77099;SDS011;66602;48.922;2.414;2023-05-21T17:40:56;10.35;;;9.27;;
77099;SDS011;66602;48.922;2.414;2023-05-21T17:43:23;8.73;;;7.65;;
77099;SDS011;66602;48.922;2.414;2023-05-21T17:45:50;10.80;;;9.43;;
77099;SDS011;66602;48.922;2.414;2023-05-21T17:48:16;10.60;;;9.60;;
77099;SDS011;66602;48.922;2.414;2023-05-21T17:50:42;9.40;;;8.52;;
77099;SDS011;66602;48.922;2.414;2023-05-21T17:53:10;18.88;;;8.40;;
77099;SDS011;66602;48.922;2.414;2023-05-21T17:55:37;10.25;;;9.23;;
77099;SDS011;66602;48.922;2.414;2023-05-21T17:58:02;9.95;;;9.25;;
77099;SDS011;66602;48.922;2.414;2023-05-21T18:00:29;12.73;;;9.70;;
77099;SDS011;66602;48.922;2.414;2023-05-21T18:02:56;56.20;;;19.05;;
77099;SDS011;66602;48.922;2.414;2023-05-21T18:05:22;10.65;;;9.68;;
77099;SDS011;66602;48.922;2.414;2023-05-21T18:07:48;13.32;;;9.60;;
77099;SDS011;66602;48.922;2.414;2023-05-21T18:10:13;15.25;;;10.00;;
77099;SDS011;66602;48.922;2.414;2023-05-21T18:12:39;10.73;;;9.40;;
77099;SDS011;66602;48.922;2.414;2023-05-21T18:15:05;10.38;;;9.20;;
77099;SDS011;66602;48.922;2.414;2023-05-21T18:17:31;10.60;;;8.82;;
77099;SDS011;66602;48.922;2.414;2023-05-21T18:19:57;10.10;;;9.40;;
77099;SDS011;66602;48.922;2.414;2023-05-21T18:22:22;10.07;;;9.25;;
77099;SDS011;66602;48.922;2.414;2023-05-21T18:24:48;12.10;;;10.35;;
77099;SDS011;66602;48.922;2.414;2023-05-21T18:27:13;12.15;;;11.00;;
77099;SDS011;66602;48.922;2.414;2023-05-21T18:29:39;11.45;;;8.80;;
77099;SDS011;66602;48.922;2.414;2023-05-21T18:32:07;10.10;;;9.02;;
77099;SDS011;66602;48.922;2.414;2023-05-21T18:34:34;9.05;;;8.32;;
77099;SDS011;66602;48.922;2.414;2023-05-21T18:37:00;9.57;;;8.60;;
77099;SDS011;66602;48.922;2.414;2023-05-21T18:39:25;9.90;;;8.95;;
77099;SDS011;66602;48.922;2.414;2023-05-21T18:41:52;9.48;;;8.73;;
77099;SDS011;66602;48.922;2.414;2023-05-21T18:44:18;9.90;;;9.00;;
77099;SDS011;66602;48.922;2.414;2023-05-21T18:46:43;14.32;;;9.75;;
77099;SDS011;66602;48.922;2.414;2023-05-21T18:49:09;9.70;;;9.00;;
77099;SDS011;66602;48.922;2.414;2023-05-21T18:51:35;9.73;;;8.82;;
77099;SDS011;66602;48.922;2.414;2023-05-21T18:54:00;10.90;;;9.82;;
77099;SDS011;66602;48.922;2.414;2023-05-21T18:56:25;17.88;;;9.70;;
77099;SDS011;66602;48.922;2.414;2023-05-21T18:58:51;11.40;;;9.68;;
77099;SDS011;66602;48.922;2.414;2023-05-21T19:01:17;10.65;;;9.68;;
77099;SDS011;66602;48.922;2.414;2023-05-21T19:03:42;9.68;;;9.00;;
77099;SDS011;66602;48.922;2.414;2023-05-21T19:06:08;11.00;;;9.95;;
77099;SDS011;66602;48.922;2.414;2023-05-21T19:08:33;10.60;;;9.23;;
77099;SDS011;66602;48.922;2.414;2023-05-21T19:10:59;14.05;;;10.20;;
77099;SDS011;66602;48.922;2.414;2023-05-21T19:13:24;13.07;;;11.88;;
77099;SDS011;66602;48.922;2.414;2023-05-21T19:15:50;14.50;;;10.27;;
77099;SDS011;66602;48.922;2.414;2023-05-21T19:18:17;13.10;;;10.25;;
77099;SDS011;66602;48.922;2.414;2023-05-21T19:20:42;11.38;;;9.50;;
77099;SDS011;66602;48.922;2.414;2023-05-21T19:23:08;19.48;;;10.50;;
77099;SDS011;66602;48.922;2.414;2023-05-21T19:25:34;12.60;;;9.95;;
77099;SDS011;66602;48.922;2.414;2023-05-21T19:27:59;11.35;;;9.73;;
77099;SDS011;66602;48.922;2.414;2023-05-21T19:30:25;11.32;;;10.27;;
77099;SDS011;66602;48.922;2.414;2023-05-21T19:32:51;11.48;;;10.43;;
77099;SDS011;66602;48.922;2.414;2023-05-21T19:35:16;14.02;;;10.43;;
77099;SDS011;66602;48.922;2.414;2023-05-21T19:37:42;14.07;;;11.00;;
77099;SDS011;66602;48.922;2.414;2023-05-21T19:40:08;27.45;;;21.80;;
77099;SDS011;66602;48.922;2.414;2023-05-21T19:42:34;16.73;;;10.60;;
77099;SDS011;66602;48.922;2.414;2023-05-21T19:44:59;13.40;;;10.07;;
77099;SDS011;66602;48.922;2.414;2023-05-21T19:47:25;18.38;;;11.18;;
77099;SDS011;66602;48.922;2.414;2023-05-21T19:49:52;17.40;;;11.85;;
77099;SDS011;66602;48.922;2.414;2023-05-21T19:52:17;14.18;;;10.75;;
77099;SDS011;66602;48.922;2.414;2023-05-21T19:54:43;12.73;;;11.07;;
77099;SDS011;66602;48.922;2.414;2023-05-21T19:57:10;13.20;;;10.82;;
77099;SDS011;66602;48.922;2.414;2023-05-21T19:59:38;12.38;;;11.02;;
77099;SDS011;66602;48.922;2.414;2023-05-21T20:02:05;13.50;;;11.80;;
77099;SDS011;66602;48.922;2.414;2023-05-21T20:04:31;13.68;;;10.65;;
77099;SDS011;66602;48.922;2.414;2023-05-21T20:06:57;12.73;;;11.25;;
77099;SDS011;66602;48.922;2.414;2023-05-21T20:09:23;12.13;;;10.90;;
77099;SDS011;66602;48.922;2.414;2023-05-21T20:11:50;11.85;;;10.82;;
77099;SDS011;66602;48.922;2.414;2023-05-21T20:14:17;17.02;;;10.98;;
77099;SDS011;66602;48.922;2.414;2023-05-21T20:16:42;20.23;;;11.25;;
77099;SDS011;66602;48.922;2.414;2023-05-21T20:19:10;19.67;;;11.18;;
77099;SDS011;66602;48.922;2.414;2023-05-21T20:21:38;16.45;;;10.88;;
77099;SDS011;66602;48.922;2.414;2023-05-21T20:24:06;14.35;;;11.57;;
77099;SDS011;66602;48.922;2.414;2023-05-21T20:26:31;14.70;;;12.18;;
77099;SDS011;66602;48.922;2.414;2023-05-21T20:28:59;12.63;;;11.32;;
77099;SDS011;66602;48.922;2.414;2023-05-21T20:31:45;11.85;;;10.98;;
77099;SDS011;66602;48.922;2.414;2023-05-21T20:34:11;14.27;;;12.73;;
77099;SDS011;66602;48.922;2.414;2023-05-21T20:36:38;19.45;;;15.90;;
77099;SDS011;66602;48.922;2.414;2023-05-21T20:39:11;22.15;;;11.50;;
77099;SDS011;66602;48.922;2.414;2023-05-21T20:41:41;11.75;;;10.27;;
77099;SDS011;66602;48.922;2.414;2023-05-21T20:44:08;15.98;;;11.10;;
77099;SDS011;66602;48.922;2.414;2023-05-21T20:46:35;11.82;;;10.65;;
77099;SDS011;66602;48.922;2.414;2023-05-21T20:49:03;16.35;;;11.25;;
77099;SDS011;66602;48.922;2.414;2023-05-21T20:51:31;12.25;;;10.95;;
77099;SDS011;66602;48.922;2.414;2023-05-21T20:53:57;12.18;;;11.02;;
77099;SDS011;66602;48.922;2.414;2023-05-21T20:56:23;17.75;;;11.20;;
77099;SDS011;66602;48.922;2.414;2023-05-21T20:58:56;13.48;;;11.15;;
77099;SDS011;66602;48.922;2.414;2023-05-21T21:01:38;18.98;;;11.32;;
77099;SDS011;66602;48.922;2.414;2023-05-21T21:04:04;12.05;;;10.65;;
77099;SDS011;66602;48.922;2.414;2023-05-21T21:06:33;11.85;;;10.65;;
77099;SDS011;66602;48.922;2.414;2023-05-21T21:09:02;14.07;;;10.00;;
77099;SDS011;66602;48.922;2.414;2023-05-21T21:11:29;10.65;;;9.48;;
77099;SDS011;66602;48.922;2.414;2023-05-21T21:13:58;11.32;;;9.15;;
77099;SDS011;66602;48.922;2.414;2023-05-21T21:16:26;10.27;;;9.23;;
77099;SDS011;66602;48.922;2.414;2023-05-21T21:18:52;10.85;;;9.60;;
77099;SDS011;66602;48.922;2.414;2023-05-21T21:21:23;10.38;;;9.02;;
77099;SDS011;66602;48.922;2.414;2023-05-21T21:23:51;9.18;;;8.48;;
77099;SDS011;66602;48.922;2.414;2023-05-21T21:26:16;11.63;;;8.45;;
77099;SDS011;66602;48.922;2.414;2023-05-21T21:28:44;9.25;;;8.45;;
77099;SDS011;66602;48.922;2.414;2023-05-21T21:31:11;10.57;;;9.30;;
77099;SDS011;66602;48.922;2.414;2023-05-21T21:33:58;13.93;;;9.07;;
77099;SDS011;66602;48.922;2.414;2023-05-21T21:36:24;11.80;;;7.78;;
77099;SDS011;66602;48.922;2.414;2023-05-21T21:38:52;13.93;;;8.40;;
77099;SDS011;66602;48.922;2.414;2023-05-21T21:41:20;10.20;;;7.30;;
77099;SDS011;66602;48.922;2.414;2023-05-21T21:43:46;7.72;;;7.10;;
77099;SDS011;66602;48.922;2.414;2023-05-21T21:46:14;9.07;;;6.47;;
77099;SDS011;66602;48.922;2.414;2023-05-21T21:48:39;11.05;;;6.20;;
77099;SDS011;66602;48.922;2.414;2023-05-21T21:51:10;7.72;;;6.95;;
77099;SDS011;66602;48.922;2.414;2023-05-21T21:53:47;15.85;;;6.43;;
77099;SDS011;66602;48.922;2.414;2023-05-21T21:56:14;9.20;;;6.40;;
77099;SDS011;66602;48.922;2.414;2023-05-21T21:58:42;7.07;;;6.07;;
77099;SDS011;66602;48.922;2.414;2023-05-21T22:01:09;7.55;;;6.82;;
77099;SDS011;66602;48.922;2.414;2023-05-21T22:03:36;11.93;;;6.00;;
77099;SDS011;66602;48.922;2.414;2023-05-21T22:06:09;8.30;;;6.23;;
77099;SDS011;66602;48.922;2.414;2023-05-21T22:08:37;7.05;;;6.35;;
77099;SDS011;66602;48.922;2.414;2023-05-21T22:11:09;6.32;;;5.90;;
77099;SDS011;66602;48.922;2.414;2023-05-21T22:13:58;7.80;;;6.03;;
77099;SDS011;66602;48.922;2.414;2023-05-21T22:16:26;8.50;;;6.28;;
77099;SDS011;66602;48.922;2.414;2023-05-21T22:18:52;9.10;;;5.72;;
77099;SDS011;66602;48.922;2.414;2023-05-21T22:21:19;12.48;;;6.30;;
77099;SDS011;66602;48.922;2.414;2023-05-21T22:23:55;7.05;;;5.40;;
77099;SDS011;66602;48.922;2.414;2023-05-21T22:26:21;6.13;;;5.50;;
77099;SDS011;66602;48.922;2.414;2023-05-21T22:28:47;10.13;;;6.95;;
77099;SDS011;66602;48.922;2.414;2023-05-21T22:31:12;7.90;;;5.78;;
77099;SDS011;66602;48.922;2.414;2023-05-21T22:33:38;7.15;;;5.13;;
77099;SDS011;66602;48.922;2.414;2023-05-21T22:36:05;6.18;;;5.75;;
77099;SDS011;66602;48.922;2.414;2023-05-21T22:38:31;9.35;;;5.80;;
77099;SDS011;66602;48.922;2.414;2023-05-21T22:40:59;10.63;;;6.13;;
77099;SDS011;66602;48.922;2.414;2023-05-21T22:43:25;7.88;;;5.70;;
77099;SDS011;66602;48.922;2.414;2023-05-21T22:45:51;11.52;;;5.95;;
77099;SDS011;66602;48.922;2.414;2023-05-21T22:48:20;6.60;;;5.57;;
77099;SDS011;66602;48.922;2.414;2023-05-21T22:50:50;11.85;;;6.65;;
77099;SDS011;66602;48.922;2.414;2023-05-21T22:53:22;6.60;;;5.93;;
77099;SDS011;66602;48.922;2.414;2023-05-21T22:55:49;13.32;;;6.70;;
77099;SDS011;66602;48.922;2.414;2023-05-21T22:58:15;21.52;;;8.68;;
77099;SDS011;66602;48.922;2.414;2023-05-21T23:00:41;7.55;;;5.43;;
77099;SDS011;66602;48.922;2.414;2023-05-21T23:03:08;8.80;;;6.10;;
77099;SDS011;66602;48.922;2.414;2023-05-21T23:05:35;8.30;;;5.93;;
77099;SDS011;66602;48.922;2.414;2023-05-21T23:08:02;11.23;;;6.85;;
77099;SDS011;66602;48.922;2.414;2023-05-21T23:10:29;10.57;;;5.55;;
77099;SDS011;66602;48.922;2.414;2023-05-21T23:12:56;8.80;;;5.82;;
77099;SDS011;66602;48.922;2.414;2023-05-21T23:15:22;7.88;;;6.82;;
77099;SDS011;66602;48.922;2.414;2023-05-21T23:17:48;10.30;;;6.47;;
77099;SDS011;66602;48.922;2.414;2023-05-21T23:20:17;19.77;;;7.00;;
77099;SDS011;66602;48.922;2.414;2023-05-21T23:22:45;12.70;;;6.15;;
77099;SDS011;66602;48.922;2.414;2023-05-21T23:25:12;11.98;;;6.47;;
77099;SDS011;66602;48.922;2.414;2023-05-21T23:27:38;12.15;;;6.78;;
77099;SDS011;66602;48.922;2.414;2023-05-21T23:30:03;7.97;;;6.55;;
77099;SDS011;66602;48.922;2.414;2023-05-21T23:32:29;10.43;;;6.28;;
77099;SDS011;66602;48.922;2.414;2023-05-21T23:34:55;16.02;;;7.15;;
77099;SDS011;66602;48.922;2.414;2023-05-21T23:37:21;9.05;;;5.90;;
77099;SDS011;66602;48.922;2.414;2023-05-21T23:39:46;10.35;;;6.93;;
77099;SDS011;66602;48.922;2.414;2023-05-21T23:42:15;7.07;;;6.45;;
77099;SDS011;66602;48.922;2.414;2023-05-21T23:44:41;12.05;;;6.30;;
77099;SDS011;66602;48.922;2.414;2023-05-21T23:47:08;8.85;;;6.95;;
77099;SDS011;66602;48.922;2.414;2023-05-21T23:49:34;10.80;;;6.88;;
77099;SDS011;66602;48.922;2.414;2023-05-21T23:51:59;6.72;;;5.90;;
77099;SDS011;66602;48.922;2.414;2023-05-21T23:54:26;10.77;;;6.72;;
77099;SDS011;66602;48.922;2.414;2023-05-21T23:56:52;11.40;;;6.25;;
77099;SDS011;66602;48.922;2.414;2023-05-21T23:59:18;10.82;;;5.90;;
